This is the latest recevied weather packets stored in our database for station/object n3uvr. If no packets are shown the sender has not sent any weather packets the latest 1 day(s).
| Time | Temp. | Humidity | Pressure | Rain* | Wind** | Luminosity | Snow |
|---|---|---|---|---|---|---|---|
| 1778041290 | 17.78° C | 63% | 1007.4 hPa | 0 mm | 0 m/s | 0 W/m² | - |
| 1778040095 | 18.33° C | 60% | 1007.2 hPa | 0 mm | 0 m/s | 0 W/m² | - |
| 1778038286 | 19.44° C | 58% | 1007.1 hPa | 0 mm | 0 m/s | 0 W/m² | - |
| 1778037076 | 20° C | 56% | 1007 hPa | 0 mm | 0 m/s | 0 W/m² | - |
| 1778036472 | 20° C | 56% | 1007.2 hPa | 0 mm | 0 m/s | 0 W/m² | - |
| 1778035255 | 20.56° C | 54% | 1007.2 hPa | 0 mm | 0 m/s | 0 W/m² | - |
| 1778034673 | 21.11° C | 53% | 1007.2 hPa | 0 mm | 0 m/s | 0 W/m² | - |
| 1778034080 | 21.11° C | 53% | 1007.1 hPa | 0 mm | 0 m/s | 0 W/m² | - |
| 1778033475 | 21.11° C | 51% | 1007 hPa | 0 mm | 0 m/s | 0 W/m² | - |
| 1778032258 | 21.67° C | 50% | 1006.7 hPa | 0 mm | 0 m/s | 0 W/m² | - |
| 1778031063 | 22.22° C | 50% | 1006.5 hPa | 0 mm | 0 m/s | 0 W/m² | - |
| 1778029252 | 22.78° C | 47% | 1006.4 hPa | 0 mm | 0 m/s | 0 W/m² | - |
| 1778028644 | 22.78° C | 49% | 1006.3 hPa | 0 mm | 0 m/s | 0 W/m² | - |
| 1778028054 | 22.78° C | 48% | 1006.2 hPa | 0 mm | 0 m/s | 0 W/m² | - |
| 1778027459 | 22.78° C | 48% | 1006.1 hPa | 0 mm | 0 m/s | 0 W/m² | - |
| 1778025072 | 22.78° C | 49% | 1005.9 hPa | 0 mm | 0 m/s | 0 W/m² | - |
| 1778023885 | 23.33° C | 50% | 1005.9 hPa | 0 mm | 0 m/s | 5 W/m² | - |
| 1778022087 | 23.33° C | 48% | 1005.5 hPa | 0 mm | 0 m/s | 19 W/m² | - |
| 1778021497 | 23.33° C | 48% | 1005.5 hPa | 0 mm | 0 m/s | 18 W/m² | - |
| 1778020894 | 23.33° C | 48% | 1005.7 hPa | 0 mm | 0 m/s | 46 W/m² | - |
| 1778019677 | 23.89° C | 46% | 1005.6 hPa | 0 mm | 0 m/s | 37 W/m² | - |
| 1778019038 | 23.89° C | 45% | 1005.5 hPa | 0 mm | 0 m/s | 25 W/m² | - |
| 1778007583 | 27.22° C | 34% | 1005.9 hPa | 0 mm | 0 m/s | 601 W/m² | - |
| 1778006982 | 27.22° C | 34% | 1006.1 hPa | 0 mm | 0 m/s | 875 W/m² | - |
| 1778005168 | 27.22° C | 36% | 1006.6 hPa | 0 mm | 0 m/s | 598 W/m² | - |
* Rain latest hour (hover to see other rain measurements)
** Current wind speed in m/s (hover to see current wind gust speed)